Time;durP1;ratioP1;P1;durP2;ratioP2;P2;SDS_P1;SDS_P2;PMS_P1;PMS_P2;Temp;Humidity;BMP_temperature;BMP_pressure;BME280_temperature;BME280_humidity;BME280_pressure;Samples;Min_cycle;Max_cycle;Signal;HPM_P1;HPM_P2
2023/07/13 00:01:52;;;;;;;1.50;1.30;;;;;;;;;;4974705;28;20030;-70
2023/07/13 00:04:20;;;;;;;1.55;1.27;;;;;;;;;;4975105;28;20015;-69
2023/07/13 00:06:47;;;;;;;2.80;1.30;;;;;;;;;;4975049;28;20025;-70
2023/07/13 00:09:14;;;;;;;1.88;1.33;;;;;;;;;;4974527;28;20027;-70
2023/07/13 00:11:41;;;;;;;1.73;1.40;;;;;;;;;;4974519;28;20039;-70
2023/07/13 00:14:08;;;;;;;1.80;1.08;;;;;;;;;;4974458;28;20066;-69
2023/07/13 00:16:35;;;;;;;2.83;1.60;;;;;;;;;;4973596;28;20027;-69
2023/07/13 00:19:01;;;;;;;2.53;1.20;;;;;;;;;;4974571;28;20480;-70
2023/07/13 00:21:27;;;;;;;1.35;1.13;;;;;;;;;;4974591;28;20029;-70
2023/07/13 00:23:54;;;;;;;1.63;1.27;;;;;;;;;;4974158;28;20470;-70
2023/07/13 00:26:20;;;;;;;1.67;1.33;;;;;;;;;;4974502;28;20022;-69
2023/07/13 00:28:46;;;;;;;1.65;1.25;;;;;;;;;;4974420;28;20522;-70
2023/07/13 00:31:14;;;;;;;1.35;1.23;;;;;;;;;;4974616;28;20045;-70
2023/07/13 00:33:41;;;;;;;1.80;1.10;;;;;;;;;;4974262;28;20030;-70
2023/07/13 00:36:08;;;;;;;1.90;1.20;;;;;;;;;;4974305;28;20023;-70
2023/07/13 00:38:35;;;;;;;2.03;1.40;;;;;;;;;;4974038;28;20379;-70
2023/07/13 00:41:03;;;;;;;2.10;1.27;;;;;;;;;;4974467;28;20026;-70
2023/07/13 00:43:29;;;;;;;1.67;1.30;;;;;;;;;;4974394;28;20023;-69
2023/07/13 00:46:01;;;;;;;1.40;1.17;;;;;;;;;;4973894;28;20034;-69
2023/07/13 00:48:32;;;;;;;1.23;1.13;;;;;;;;;;4974093;28;20023;-69
2023/07/13 00:51:01;;;;;;;1.38;1.20;;;;;;;;;;4973826;28;20023;-69
2023/07/13 00:53:28;;;;;;;2.47;1.20;;;;;;;;;;4973772;28;20037;-69
2023/07/13 00:55:55;;;;;;;1.80;1.02;;;;;;;;;;4974367;28;20027;-70
2023/07/13 00:58:22;;;;;;;1.58;1.05;;;;;;;;;;4974042;28;20027;-70
2023/07/13 01:00:50;;;;;;;2.17;1.25;;;;;;;;;;4974165;28;20037;-70
2023/07/13 01:03:17;;;;;;;1.63;1.27;;;;;;;;;;4973935;28;20033;-70
2023/07/13 01:05:43;;;;;;;1.35;0.98;;;;;;;;;;4973764;28;20072;-70
2023/07/13 01:08:09;;;;;;;1.20;1.10;;;;;;;;;;4973576;28;20034;-70
2023/07/13 01:10:39;;;;;;;1.23;1.05;;;;;;;;;;4973876;28;20431;-69
2023/07/13 01:13:07;;;;;;;1.45;1.20;;;;;;;;;;4973531;28;20100;-69
2023/07/13 01:15:37;;;;;;;2.00;1.30;;;;;;;;;;4973839;28;20035;-69
2023/07/13 01:18:11;;;;;;;1.55;1.15;;;;;;;;;;4973913;28;20031;-69
2023/07/13 01:20:38;;;;;;;1.52;1.13;;;;;;;;;;4973586;28;20027;-70
2023/07/13 01:23:06;;;;;;;1.50;1.10;;;;;;;;;;4973433;28;20054;-70
2023/07/13 01:25:32;;;;;;;1.30;1.10;;;;;;;;;;4973793;28;20054;-70
2023/07/13 01:27:59;;;;;;;1.33;0.90;;;;;;;;;;4973959;28;20025;-70
2023/07/13 01:30:25;;;;;;;1.55;0.93;;;;;;;;;;4973683;28;20023;-70
2023/07/13 01:32:51;;;;;;;1.40;1.17;;;;;;;;;;4973604;28;20039;-70
2023/07/13 01:35:18;;;;;;;1.48;1.10;;;;;;;;;;4977261;28;20021;-70
2023/07/13 01:37:44;;;;;;;1.25;1.10;;;;;;;;;;4976498;28;20039;-70
2023/07/13 01:40:12;;;;;;;1.02;0.93;;;;;;;;;;4977736;28;20031;-70
2023/07/13 01:42:38;;;;;;;1.33;0.90;;;;;;;;;;4977466;28;20472;-70
2023/07/13 01:45:05;;;;;;;1.75;1.33;;;;;;;;;;4977408;28;20029;-70
2023/07/13 01:47:31;;;;;;;1.10;0.98;;;;;;;;;;4977195;28;20027;-70
2023/07/13 01:49:58;;;;;;;1.65;1.25;;;;;;;;;;4977027;28;20015;-69
2023/07/13 01:52:24;;;;;;;1.40;1.15;;;;;;;;;;4977275;28;20041;-70
2023/07/13 01:54:51;;;;;;;2.05;1.48;;;;;;;;;;4977279;28;20394;-70
2023/07/13 01:57:17;;;;;;;1.00;0.90;;;;;;;;;;4977302;28;20035;-69
2023/07/13 01:59:43;;;;;;;2.60;1.30;;;;;;;;;;4976995;28;20035;-70
2023/07/13 02:02:10;;;;;;;1.00;0.93;;;;;;;;;;4977162;28;20438;-69
2023/07/13 02:04:36;;;;;;;1.30;1.20;;;;;;;;;;4976946;28;20033;-70
2023/07/13 02:07:03;;;;;;;1.00;1.00;;;;;;;;;;4977109;28;20031;-70
2023/07/13 02:09:29;;;;;;;1.10;1.00;;;;;;;;;;4977085;28;20027;-70
2023/07/13 02:11:55;;;;;;;1.25;0.90;;;;;;;;;;4976781;28;20033;-69
2023/07/13 02:14:22;;;;;;;1.63;1.20;;;;;;;;;;4976891;28;20104;-70
2023/07/13 02:16:48;;;;;;;1.10;1.00;;;;;;;;;;4976910;28;20030;-70
2023/07/13 02:19:14;;;;;;;1.77;1.10;;;;;;;;;;4976455;28;20130;-70
2023/07/13 02:21:41;;;;;;;0.80;0.70;;;;;;;;;;4976776;28;20034;-70
2023/07/13 02:24:07;;;;;;;1.23;1.13;;;;;;;;;;4991732;28;20077;-70
2023/07/13 02:26:34;;;;;;;1.20;1.10;;;;;;;;;;4975742;28;20037;-70
2023/07/13 02:29:01;;;;;;;1.23;1.05;;;;;;;;;;4976700;28;20026;-70
2023/07/13 02:31:27;;;;;;;1.23;1.00;;;;;;;;;;4976236;28;20034;-69
2023/07/13 02:33:53;;;;;;;1.33;0.95;;;;;;;;;;4976272;28;20038;-70
2023/07/13 02:36:20;;;;;;;1.38;1.10;;;;;;;;;;4976460;28;20460;-70
2023/07/13 02:38:46;;;;;;;1.92;0.93;;;;;;;;;;4976474;28;20027;-69
2023/07/13 02:41:12;;;;;;;0.80;0.80;;;;;;;;;;4976545;28;20027;-69
2023/07/13 02:43:38;;;;;;;0.80;0.80;;;;;;;;;;4976574;28;20029;-69
2023/07/13 02:46:06;;;;;;;1.15;0.93;;;;;;;;;;4976200;28;20390;-69
2023/07/13 02:48:39;;;;;;;1.13;1.02;;;;;;;;;;4976380;28;20023;-69
2023/07/13 02:51:06;;;;;;;1.23;0.80;;;;;;;;;;4975937;28;20027;-70
2023/07/13 02:53:32;;;;;;;1.80;0.80;;;;;;;;;;4976279;28;20041;-69
2023/07/13 02:55:59;;;;;;;0.70;0.70;;;;;;;;;;4976463;28;20033;-70
2023/07/13 02:58:25;;;;;;;1.30;1.05;;;;;;;;;;4976414;28;20037;-70
2023/07/13 03:00:52;;;;;;;1.60;0.90;;;;;;;;;;4975961;28;20021;-70
2023/07/13 03:03:18;;;;;;;1.10;0.80;;;;;;;;;;4975710;28;20368;-70
2023/07/13 03:05:49;;;;;;;1.13;1.02;;;;;;;;;;4976267;28;20035;-69
2023/07/13 03:08:18;;;;;;;0.98;0.88;;;;;;;;;;4975907;28;20039;-70
2023/07/13 03:10:44;;;;;;;1.23;1.02;;;;;;;;;;4975973;28;20468;-70
2023/07/13 03:13:10;;;;;;;1.23;0.90;;;;;;;;;;4975662;28;20039;-70
2023/07/13 03:15:36;;;;;;;1.20;0.90;;;;;;;;;;4975855;28;20023;-69
2023/07/13 03:18:03;;;;;;;1.08;0.80;;;;;;;;;;4975941;28;20041;-70
2023/07/13 03:20:29;;;;;;;1.10;1.00;;;;;;;;;;4975729;28;20033;-70
2023/07/13 03:22:55;;;;;;;1.00;0.90;;;;;;;;;;4975648;28;20391;-70
2023/07/13 03:25:22;;;;;;;1.27;0.90;;;;;;;;;;4974353;28;20476;-70
2023/07/13 03:27:48;;;;;;;1.55;0.90;;;;;;;;;;4975863;28;20031;-69
2023/07/13 03:30:14;;;;;;;0.80;0.80;;;;;;;;;;4975522;28;20030;-69
2023/07/13 03:32:40;;;;;;;1.02;0.93;;;;;;;;;;4975074;28;20030;-70
2023/07/13 03:35:07;;;;;;;1.45;1.00;;;;;;;;;;4975446;28;20022;-69
2023/07/13 03:37:33;;;;;;;1.00;0.80;;;;;;;;;;4975212;28;20035;-70
2023/07/13 03:40:00;;;;;;;0.70;0.70;;;;;;;;;;4975255;28;20026;-69
2023/07/13 03:42:26;;;;;;;1.48;1.00;;;;;;;;;;4975371;28;20030;-69
2023/07/13 03:44:52;;;;;;;1.13;0.88;;;;;;;;;;4975362;28;20025;-69
2023/07/13 03:47:19;;;;;;;1.00;0.88;;;;;;;;;;4975064;28;20045;-70
2023/07/13 03:49:46;;;;;;;1.08;0.90;;;;;;;;;;4975226;28;20031;-69
2023/07/13 03:52:12;;;;;;;1.15;0.85;;;;;;;;;;4975184;28;20034;-70
2023/07/13 03:54:38;;;;;;;0.80;0.80;;;;;;;;;;4974975;28;20023;-70
2023/07/13 03:57:05;;;;;;;0.75;0.75;;;;;;;;;;4974265;28;20415;-69
2023/07/13 03:59:31;;;;;;;1.05;0.80;;;;;;;;;;4975066;28;20030;-70
2023/07/13 04:01:57;;;;;;;1.05;0.77;;;;;;;;;;4974591;28;20021;-70
2023/07/13 04:04:24;;;;;;;1.23;1.10;;;;;;;;;;4975234;28;20035;-69
2023/07/13 04:06:52;;;;;;;0.88;0.80;;;;;;;;;;4975006;28;20023;-70
2023/07/13 04:09:18;;;;;;;1.10;0.73;;;;;;;;;;4974913;28;20053;-70
2023/07/13 04:11:45;;;;;;;1.60;0.95;;;;;;;;;;4974843;28;20045;-70
2023/07/13 04:14:11;;;;;;;1.40;0.98;;;;;;;;;;4974501;28;20039;-70
2023/07/13 04:16:37;;;;;;;1.40;0.90;;;;;;;;;;4974270;28;20406;-70
2023/07/13 04:19:04;;;;;;;0.70;0.70;;;;;;;;;;4974719;28;20023;-69
2023/07/13 04:21:31;;;;;;;2.03;1.00;;;;;;;;;;4975011;28;20015;-70
2023/07/13 04:23:58;;;;;;;0.70;0.70;;;;;;;;;;4974520;28;20095;-69
2023/07/13 04:26:24;;;;;;;1.20;0.70;;;;;;;;;;4974591;28;20030;-69
2023/07/13 04:28:51;;;;;;;0.80;0.80;;;;;;;;;;4989333;28;20480;-69
2023/07/13 04:31:18;;;;;;;0.70;0.70;;;;;;;;;;4973896;28;20522;-69
2023/07/13 04:33:44;;;;;;;1.13;0.80;;;;;;;;;;4974531;28;20045;-70
2023/07/13 04:36:11;;;;;;;2.05;0.60;;;;;;;;;;4974188;28;20023;-69
2023/07/13 04:38:37;;;;;;;0.80;0.70;;;;;;;;;;4974216;28;20479;-69
2023/07/13 04:41:05;;;;;;;0.80;0.80;;;;;;;;;;4974360;28;20023;-69
2023/07/13 04:43:32;;;;;;;0.80;0.80;;;;;;;;;;4974271;28;20479;-72
2023/07/13 04:46:03;;;;;;;1.38;0.80;;;;;;;;;;4974183;28;20391;-70
2023/07/13 04:48:30;;;;;;;1.13;0.90;;;;;;;;;;4974203;28;20034;-70
2023/07/13 04:50:57;;;;;;;0.70;0.70;;;;;;;;;;4974028;28;20081;-69
2023/07/13 04:53:23;;;;;;;0.65;0.65;;;;;;;;;;4974018;28;20042;-70
2023/07/13 04:55:49;;;;;;;1.02;0.75;;;;;;;;;;4974142;28;20438;-70
2023/07/13 04:58:16;;;;;;;1.45;0.80;;;;;;;;;;4973869;28;20029;-69
2023/07/13 05:00:42;;;;;;;3.08;0.90;;;;;;;;;;4974007;28;20502;-70
2023/07/13 05:03:09;;;;;;;0.70;0.70;;;;;;;;;;4974073;28;20423;-70
2023/07/13 05:05:35;;;;;;;1.23;0.70;;;;;;;;;;4973822;28;20030;-69
2023/07/13 05:08:01;;;;;;;1.30;0.80;;;;;;;;;;4974246;28;20025;-70
2023/07/13 05:10:28;;;;;;;0.80;0.80;;;;;;;;;;4973815;28;20407;-70
2023/07/13 05:12:54;;;;;;;1.50;0.90;;;;;;;;;;4972145;28;20034;-70
2023/07/13 05:15:22;;;;;;;1.88;1.00;;;;;;;;;;4973725;28;20042;-70
2023/07/13 05:17:49;;;;;;;0.70;0.70;;;;;;;;;;4973947;28;20037;-70
2023/07/13 05:20:16;;;;;;;1.17;0.70;;;;;;;;;;4973601;28;20033;-70
2023/07/13 05:22:43;;;;;;;1.25;0.80;;;;;;;;;;4973855;28;20407;-70
2023/07/13 05:25:10;;;;;;;0.65;0.63;;;;;;;;;;4973800;28;20034;-69
2023/07/13 05:27:36;;;;;;;0.80;0.80;;;;;;;;;;4973534;28;20033;-70
2023/07/13 05:30:03;;;;;;;1.13;0.80;;;;;;;;;;4973661;28;20472;-70
2023/07/13 05:32:30;;;;;;;0.73;0.60;;;;;;;;;;4973554;28;20034;-70
2023/07/13 05:34:56;;;;;;;0.93;0.70;;;;;;;;;;4973929;28;20022;-70
2023/07/13 05:37:22;;;;;;;2.20;0.80;;;;;;;;;;4973669;28;20057;-70
2023/07/13 05:39:49;;;;;;;0.60;0.60;;;;;;;;;;4973604;28;20029;-69
2023/07/13 05:42:15;;;;;;;1.25;0.82;;;;;;;;;;4973001;28;20031;-69
2023/07/13 05:44:41;;;;;;;0.70;0.70;;;;;;;;;;4973782;28;20023;-70
2023/07/13 05:47:08;;;;;;;0.93;0.65;;;;;;;;;;4973851;28;20073;-70
2023/07/13 05:49:34;;;;;;;1.58;0.80;;;;;;;;;;4973442;28;20030;-69
2023/07/13 05:52:00;;;;;;;0.80;0.70;;;;;;;;;;4973324;28;20117;-70
2023/07/13 05:54:27;;;;;;;1.05;0.70;;;;;;;;;;4973125;28;20027;-70
2023/07/13 05:56:53;;;;;;;1.35;0.70;;;;;;;;;;4973288;28;20037;-69
2023/07/13 05:59:20;;;;;;;0.60;0.60;;;;;;;;;;4973344;28;20023;-70
2023/07/13 06:01:46;;;;;;;0.70;0.70;;;;;;;;;;4973257;28;20033;-70
2023/07/13 06:04:12;;;;;;;0.80;0.77;;;;;;;;;;4973222;28;20381;-70
2023/07/13 06:06:38;;;;;;;1.55;0.80;;;;;;;;;;4973439;28;20015;-70
2023/07/13 06:09:05;;;;;;;0.65;0.60;;;;;;;;;;4973298;28;20124;-69
2023/07/13 06:11:31;;;;;;;0.93;0.80;;;;;;;;;;4972966;28;20029;-70
2023/07/13 06:13:58;;;;;;;2.25;0.95;;;;;;;;;;4973222;28;20410;-70
2023/07/13 06:16:24;;;;;;;1.20;0.77;;;;;;;;;;4973333;28;20403;-70
2023/07/13 06:18:51;;;;;;;0.93;0.60;;;;;;;;;;4988110;28;20041;-70
2023/07/13 06:21:18;;;;;;;0.80;0.65;;;;;;;;;;4976598;28;20468;-70
2023/07/13 06:23:47;;;;;;;1.77;0.70;;;;;;;;;;4976584;28;20049;-70
2023/07/13 06:26:14;;;;;;;1.13;0.80;;;;;;;;;;4976540;28;20025;-70
2023/07/13 06:28:40;;;;;;;3.67;1.65;;;;;;;;;;4976904;28;20039;-70
2023/07/13 06:31:08;;;;;;;3.97;1.40;;;;;;;;;;4974196;28;20029;-67
2023/07/13 06:33:34;;;;;;;4.50;1.08;;;;;;;;;;4975638;28;20035;-67
2023/07/13 06:36:02;;;;;;;3.42;0.98;;;;;;;;;;4975858;28;20034;-67
2023/07/13 06:38:28;;;;;;;2.65;1.00;;;;;;;;;;4975782;28;20027;-67
2023/07/13 06:40:55;;;;;;;4.07;1.20;;;;;;;;;;4974063;28;20057;-66
2023/07/13 06:43:21;;;;;;;3.67;1.33;;;;;;;;;;4974485;28;20033;-67
2023/07/13 06:45:49;;;;;;;5.03;1.30;;;;;;;;;;4975990;28;20043;-66
2023/07/13 06:48:19;;;;;;;2.08;0.88;;;;;;;;;;4975744;28;20033;-67
2023/07/13 06:50:46;;;;;;;3.63;0.93;;;;;;;;;;4975813;28;20035;-67
2023/07/13 06:53:13;;;;;;;2.88;1.05;;;;;;;;;;4975390;28;20034;-67
2023/07/13 06:55:40;;;;;;;7.03;1.25;;;;;;;;;;4975730;28;20027;-67
2023/07/13 06:58:07;;;;;;;5.95;0.93;;;;;;;;;;4975426;28;20073;-67
2023/07/13 07:00:33;;;;;;;3.72;0.75;;;;;;;;;;4974102;28;20027;-68
2023/07/13 07:02:59;;;;;;;4.72;1.40;;;;;;;;;;4975020;28;20023;-69
2023/07/13 07:05:26;;;;;;;4.78;1.10;;;;;;;;;;4974221;28;20033;-67
2023/07/13 07:07:52;;;;;;;14.25;1.33;;;;;;;;;;4974240;28;20031;-68
2023/07/13 07:10:19;;;;;;;10.40;1.88;;;;;;;;;;4975059;28;20031;-68
2023/07/13 07:12:46;;;;;;;3.80;1.30;;;;;;;;;;4975193;28;20023;-69
2023/07/13 07:15:12;;;;;;;4.45;1.45;;;;;;;;;;4974881;28;20050;-69
2023/07/13 07:17:39;;;;;;;3.17;1.15;;;;;;;;;;4974984;28;20562;-67
2023/07/13 07:20:06;;;;;;;4.28;1.10;;;;;;;;;;4975048;28;20029;-68
2023/07/13 07:22:32;;;;;;;6.28;1.30;;;;;;;;;;4975376;28;20027;-65
2023/07/13 07:24:59;;;;;;;3.17;1.10;;;;;;;;;;4973030;28;20454;-64
2023/07/13 07:27:25;;;;;;;3.10;1.10;;;;;;;;;;4974798;28;20031;-65
2023/07/13 07:29:51;;;;;;;5.47;1.08;;;;;;;;;;4974583;28;20027;-66
2023/07/13 07:32:18;;;;;;;3.85;0.95;;;;;;;;;;4973586;28;20046;-66
2023/07/13 07:34:44;;;;;;;4.15;1.48;;;;;;;;;;4974650;28;20034;-67
2023/07/13 07:37:12;;;;;;;3.80;1.20;;;;;;;;;;4974280;28;20030;-66
2023/07/13 07:39:38;;;;;;;2.72;1.10;;;;;;;;;;4974157;28;20037;-66
2023/07/13 07:42:05;;;;;;;2.42;0.98;;;;;;;;;;4974240;28;20041;-67
2023/07/13 07:44:34;;;;;;;6.30;1.13;;;;;;;;;;4973299;28;20056;-66
2023/07/13 07:47:01;;;;;;;4.63;1.08;;;;;;;;;;4974432;28;20031;-67
2023/07/13 07:49:27;;;;;;;2.70;0.93;;;;;;;;;;4974526;28;20034;-67
2023/07/13 07:51:54;;;;;;;3.00;1.05;;;;;;;;;;4974271;28;20035;-66
2023/07/13 07:54:20;;;;;;;3.75;1.10;;;;;;;;;;4972674;28;20027;-67
2023/07/13 07:56:46;;;;;;;4.07;1.10;;;;;;;;;;4973538;28;20034;-67
2023/07/13 07:59:12;;;;;;;3.53;1.00;;;;;;;;;;4973963;28;20546;-67
2023/07/13 08:01:39;;;;;;;4.03;0.90;;;;;;;;;;4974383;28;20030;-67
2023/07/13 08:04:05;;;;;;;3.25;1.00;;;;;;;;;;4973917;28;20062;-66
2023/07/13 08:06:34;;;;;;;2.88;0.90;;;;;;;;;;4973783;28;20037;-68
2023/07/13 08:09:02;;;;;;;2.15;0.80;;;;;;;;;;4973892;28;20061;-67
2023/07/13 08:11:28;;;;;;;1.63;0.80;;;;;;;;;;4973707;28;20038;-67
2023/07/13 08:13:55;;;;;;;1.83;0.85;;;;;;;;;;4972972;28;20047;-67
2023/07/13 08:16:21;;;;;;;1.75;0.82;;;;;;;;;;4974003;28;20045;-67
2023/07/13 08:18:48;;;;;;;3.17;0.95;;;;;;;;;;4973832;28;20035;-67
2023/07/13 08:21:14;;;;;;;2.70;0.93;;;;;;;;;;4973633;28;20019;-67
2023/07/13 08:23:40;;;;;;;2.03;0.88;;;;;;;;;;4973647;28;20029;-67
2023/07/13 08:26:07;;;;;;;3.10;0.90;;;;;;;;;;4973725;28;20150;-67
2023/07/13 08:28:33;;;;;;;1.27;0.70;;;;;;;;;;4974021;28;20031;-67
2023/07/13 08:31:10;;;;;;;1.48;0.70;;;;;;;;;;4973402;28;20030;-67
2023/07/13 08:33:36;;;;;;;1.20;0.57;;;;;;;;;;4973534;28;20039;-67
2023/07/13 08:36:03;;;;;;;3.17;1.10;;;;;;;;;;4973171;28;20414;-67
2023/07/13 08:38:29;;;;;;;1.92;0.70;;;;;;;;;;4973887;28;20041;-68
2023/07/13 08:40:57;;;;;;;1.90;0.80;;;;;;;;;;4973296;28;20391;-67
2023/07/13 08:43:29;;;;;;;5.70;0.88;;;;;;;;;;4973092;28;20031;-67
2023/07/13 08:46:15;;;;;;;3.95;0.80;;;;;;;;;;4973392;28;20030;-66
2023/07/13 08:48:47;;;;;;;1.65;0.80;;;;;;;;;;4960352;28;20041;-68
2023/07/13 08:51:25;;;;;;;1.00;0.70;;;;;;;;;;4972873;28;20045;-67
2023/07/13 08:53:54;;;;;;;1.50;0.60;;;;;;;;;;4973340;28;20038;-67
2023/07/13 08:56:22;;;;;;;1.40;0.68;;;;;;;;;;4973324;28;20022;-67
2023/07/13 08:58:50;;;;;;;3.47;0.90;;;;;;;;;;4973322;28;20022;-67
2023/07/13 09:01:23;;;;;;;0.70;0.68;;;;;;;;;;4973708;28;20094;-67
2023/07/13 09:04:02;;;;;;;1.30;0.80;;;;;;;;;;4972949;28;20022;-67
2023/07/13 09:06:35;;;;;;;2.63;0.80;;;;;;;;;;4973030;28;20407;-67
2023/07/13 09:09:05;;;;;;;1.80;0.70;;;;;;;;;;4973763;28;20049;-66
2023/07/13 09:11:55;;;;;;;2.92;0.90;;;;;;;;;;4973354;28;20512;-67
2023/07/13 09:14:30;;;;;;;1.45;0.63;;;;;;;;;;4973415;28;20069;-67
2023/07/13 09:16:57;;;;;;;1.63;0.80;;;;;;;;;;4973702;28;20039;-68
2023/07/13 09:19:28;;;;;;;2.08;0.98;;;;;;;;;;4973368;28;20023;-67
2023/07/13 09:21:57;;;;;;;5.25;0.95;;;;;;;;;;4973621;28;20031;-67
2023/07/13 09:24:43;;;;;;;3.03;1.10;;;;;;;;;;4973402;28;20033;-67
2023/07/13 09:27:36;;;;;;;2.78;1.00;;;;;;;;;;4963352;28;20054;-67
2023/07/13 09:30:14;;;;;;;1.20;0.70;;;;;;;;;;4970954;28;20049;-67
2023/07/13 09:32:43;;;;;;;2.42;0.90;;;;;;;;;;4973354;28;20029;-67
2023/07/13 09:35:15;;;;;;;2.33;1.02;;;;;;;;;;4972997;28;20487;-67
2023/07/13 09:37:43;;;;;;;2.25;0.90;;;;;;;;;;4973475;28;20023;-67
2023/07/13 09:40:14;;;;;;;1.85;0.75;;;;;;;;;;4973423;28;20018;-67
2023/07/13 09:42:40;;;;;;;;;;;;;;;;;;4973762;28;20035;-67
2023/07/13 09:45:07;;;;;;;1.65;0.90;;;;;;;;;;4971456;28;19917;-67
2023/07/13 09:47:38;;;;;;;5.20;1.00;;;;;;;;;;4973099;28;20045;-67
2023/07/13 09:50:07;;;;;;;2.38;1.00;;;;;;;;;;4971569;28;20019;-67
2023/07/13 09:52:44;;;;;;;3.25;1.25;;;;;;;;;;4973050;28;20546;-67
2023/07/13 09:55:25;;;;;;;3.20;1.10;;;;;;;;;;4974895;28;20029;-68
2023/07/13 09:57:52;;;;;;;1.27;0.85;;;;;;;;;;4976809;28;20483;-67
2023/07/13 10:00:28;;;;;;;3.38;0.88;;;;;;;;;;4976699;28;20517;-68
2023/07/13 10:02:59;;;;;;;2.88;1.40;;;;;;;;;;4976410;28;20383;-68
2023/07/13 10:05:26;;;;;;;3.33;1.15;;;;;;;;;;4976734;28;20030;-67
2023/07/13 10:07:52;;;;;;;1.40;0.77;;;;;;;;;;4974974;28;20033;-68
2023/07/13 10:10:21;;;;;;;5.10;1.20;;;;;;;;;;4976639;28;20027;-67
2023/07/13 10:12:48;;;;;;;5.40;0.80;;;;;;;;;;4976575;28;20446;-77
2023/07/13 10:15:16;;;;;;;3.63;0.90;;;;;;;;;;4976550;28;20035;-76
2023/07/13 10:17:43;;;;;;;1.42;0.80;;;;;;;;;;4976210;28;20034;-77
2023/07/13 10:20:12;;;;;;;1.45;0.98;;;;;;;;;;4976431;28;20049;-78
2023/07/13 10:22:48;;;;;;;2.25;0.75;;;;;;;;;;4976785;28;20029;-76
2023/07/13 10:25:17;;;;;;;2.88;0.90;;;;;;;;;;4976336;28;20037;-76
2023/07/13 10:27:43;;;;;;;0.75;0.70;;;;;;;;;;4975389;28;20030;-78
2023/07/13 10:30:16;;;;;;;3.85;0.82;;;;;;;;;;4976175;28;20027;-77
2023/07/13 10:32:42;;;;;;;1.73;0.80;;;;;;;;;;4976117;28;20054;-77
2023/07/13 10:35:12;;;;;;;4.45;0.90;;;;;;;;;;4991304;28;20031;-77
2023/07/13 10:38:01;;;;;;;5.70;0.87;;;;;;;;;;4976350;28;20023;-77
2023/07/13 10:40:37;;;;;;;4.47;0.98;;;;;;;;;;4966629;28;20270;-77
2023/07/13 10:43:07;;;;;;;1.67;0.75;;;;;;;;;;4976477;28;20033;-77
2023/07/13 10:45:35;;;;;;;2.25;0.90;;;;;;;;;;4976197;28;20031;-77
2023/07/13 10:48:02;;;;;;;1.67;0.80;;;;;;;;;;4975854;28;20030;-77
2023/07/13 10:50:30;;;;;;;1.45;0.85;;;;;;;;;;4976135;28;20041;-76
2023/07/13 10:53:03;;;;;;;1.75;0.77;;;;;;;;;;4976124;28;20035;-77
2023/07/13 10:55:40;;;;;;;2.95;0.90;;;;;;;;;;4976255;28;20027;-77
2023/07/13 10:58:33;;;;;;;1.73;0.90;;;;;;;;;;4975992;28;20506;-77
2023/07/13 11:01:03;;;;;;;3.70;0.85;;;;;;;;;;4972899;28;20039;-77
2023/07/13 11:03:30;;;;;;;3.27;1.10;;;;;;;;;;4975907;28;20031;-76
2023/07/13 11:06:11;;;;;;;2.38;0.90;;;;;;;;;;4975539;28;20026;-76
2023/07/13 11:08:46;;;;;;;1.17;0.50;;;;;;;;;;4975970;28;20034;-76
2023/07/13 11:11:25;;;;;;;1.40;0.80;;;;;;;;;;4975801;28;20027;-77
2023/07/13 11:13:51;;;;;;;3.00;1.02;;;;;;;;;;4975474;28;20047;-76
2023/07/13 11:16:20;;;;;;;1.10;0.70;;;;;;;;;;4975215;28;20037;-77
2023/07/13 11:18:47;;;;;;;1.00;0.80;;;;;;;;;;4975660;28;20407;-76
2023/07/13 11:21:17;;;;;;;2.53;0.60;;;;;;;;;;4975787;28;20015;-77
2023/07/13 11:23:44;;;;;;;;;;;;;;;;;;4975961;28;20073;-76
2023/07/13 11:26:29;;;;;;;1.70;0.70;;;;;;;;;;4990319;28;20387;-77
2023/07/13 11:28:56;;;;;;;1.08;0.68;;;;;;;;;;4975358;28;20019;-76
2023/07/13 11:31:23;;;;;;;3.40;0.88;;;;;;;;;;4975122;28;20027;-77
2023/07/13 11:33:52;;;;;;;1.50;0.80;;;;;;;;;;4975280;28;20488;-77
2023/07/13 11:36:22;;;;;;;1.35;0.73;;;;;;;;;;4975106;28;20022;-77
2023/07/13 11:38:51;;;;;;;1.60;0.70;;;;;;;;;;4975219;28;20475;-77
2023/07/13 11:41:17;;;;;;;0.75;0.70;;;;;;;;;;4975192;28;20498;-77
2023/07/13 11:43:44;;;;;;;1.75;0.73;;;;;;;;;;4975385;28;20021;-77
2023/07/13 11:46:24;;;;;;;1.13;0.60;;;;;;;;;;4974739;28;20039;-76
2023/07/13 11:48:51;;;;;;;2.08;0.70;;;;;;;;;;4975205;28;20039;-77
2023/07/13 11:51:21;;;;;;;1.48;0.90;;;;;;;;;;4974818;28;20465;-76
2023/07/13 11:53:49;;;;;;;0.73;0.70;;;;;;;;;;4975077;28;20108;-77
2023/07/13 11:56:15;;;;;;;0.70;0.60;;;;;;;;;;4975154;28;20057;-76
2023/07/13 11:58:42;;;;;;;2.25;0.70;;;;;;;;;;4974853;28;20027;-75
2023/07/13 12:01:16;;;;;;;0.93;0.65;;;;;;;;;;4971313;28;20399;-75
2023/07/13 12:03:42;;;;;;;1.02;0.70;;;;;;;;;;4974552;28;20069;-75
2023/07/13 12:06:24;;;;;;;1.50;0.70;;;;;;;;;;4973528;28;20023;-75
2023/07/13 12:08:51;;;;;;;3.15;0.80;;;;;;;;;;4974801;28;20033;-75
2023/07/13 12:11:18;;;;;;;1.83;0.68;;;;;;;;;;4989209;28;20027;-74
2023/07/13 12:13:45;;;;;;;3.13;0.60;;;;;;;;;;4973868;28;20046;-75
2023/07/13 12:16:32;;;;;;;1.55;0.73;;;;;;;;;;4974741;28;20015;-75
2023/07/13 12:18:59;;;;;;;1.20;0.80;;;;;;;;;;4973617;28;20045;-75
2023/07/13 12:21:34;;;;;;;1.15;0.70;;;;;;;;;;4974410;28;20026;-75
2023/07/13 12:24:02;;;;;;;1.02;0.60;;;;;;;;;;4974357;28;20027;-75
2023/07/13 12:26:29;;;;;;;1.85;0.70;;;;;;;;;;4974115;28;20029;-74
2023/07/13 12:28:56;;;;;;;1.75;0.55;;;;;;;;;;4973746;28;20058;-74
2023/07/13 12:31:24;;;;;;;1.55;0.80;;;;;;;;;;4973965;28;20022;-74
2023/07/13 12:33:57;;;;;;;0.98;0.82;;;;;;;;;;4973897;28;20039;-75
2023/07/13 12:36:24;;;;;;;3.08;0.65;;;;;;;;;;4973923;28;20106;-74
2023/07/13 12:38:51;;;;;;;0.90;0.60;;;;;;;;;;4973937;28;20033;-75
2023/07/13 12:41:17;;;;;;;0.93;0.70;;;;;;;;;;4989167;28;20036;-75
2023/07/13 12:43:45;;;;;;;0.82;0.50;;;;;;;;;;4973468;28;20182;-75
2023/07/13 12:46:23;;;;;;;1.48;0.55;;;;;;;;;;4973758;28;20019;-75
2023/07/13 12:48:54;;;;;;;3.08;0.70;;;;;;;;;;4972669;28;20033;-75
2023/07/13 12:51:24;;;;;;;2.03;0.77;;;;;;;;;;4973719;28;20023;-75
2023/07/13 12:53:54;;;;;;;0.82;0.60;;;;;;;;;;4973698;28;20053;-75
2023/07/13 12:56:25;;;;;;;1.35;0.80;;;;;;;;;;4973668;28;20431;-75
2023/07/13 12:58:58;;;;;;;3.97;0.75;;;;;;;;;;4973499;28;20027;-74
2023/07/13 13:01:27;;;;;;;1.35;0.60;;;;;;;;;;4973850;28;20046;-74
2023/07/13 13:03:57;;;;;;;1.02;0.50;;;;;;;;;;4973560;28;20033;-75
2023/07/13 13:06:29;;;;;;;1.35;0.80;;;;;;;;;;4973405;28;20041;-75
2023/07/13 13:08:59;;;;;;;0.98;0.80;;;;;;;;;;4973667;28;20033;-75
2023/07/13 13:11:26;;;;;;;0.85;0.70;;;;;;;;;;4973093;28;20398;-75
2023/07/13 13:13:53;;;;;;;3.42;1.05;;;;;;;;;;4973210;28;20068;-75
2023/07/13 13:16:24;;;;;;;1.50;0.70;;;;;;;;;;4973290;28;20434;-75
2023/07/13 13:18:50;;;;;;;;;;;;;;;;;;4973788;28;20025;-74
2023/07/13 13:21:18;;;;;;;1.20;0.70;;;;;;;;;;4972511;28;19906;-75
2023/07/13 13:23:45;;;;;;;2.03;0.77;;;;;;;;;;4973100;28;20041;-75
2023/07/13 13:26:13;;;;;;;2.70;0.88;;;;;;;;;;4972855;28;20034;-75
2023/07/13 13:28:39;;;;;;;2.03;0.60;;;;;;;;;;4973546;28;20027;-75
2023/07/13 13:31:05;;;;;;;1.17;0.60;;;;;;;;;;4975925;28;20035;-75
2023/07/13 13:33:32;;;;;;;1.75;0.63;;;;;;;;;;4977210;28;20041;-75
2023/07/13 13:35:59;;;;;;;2.20;0.88;;;;;;;;;;4977204;28;20025;-75
2023/07/13 13:38:27;;;;;;;2.30;0.80;;;;;;;;;;4976942;28;20519;-75
2023/07/13 13:40:54;;;;;;;3.97;1.00;;;;;;;;;;4976544;28;20400;-74
2023/07/13 13:43:27;;;;;;;1.42;0.60;;;;;;;;;;4977297;28;20029;-75
2023/07/13 13:45:55;;;;;;;1.73;0.80;;;;;;;;;;4977037;28;20015;-75
2023/07/13 13:48:30;;;;;;;1.05;0.65;;;;;;;;;;4976973;28;20034;-75
2023/07/13 13:50:56;;;;;;;0.90;0.63;;;;;;;;;;4977051;28;20057;-75
2023/07/13 13:53:23;;;;;;;2.85;0.90;;;;;;;;;;4976916;28;20039;-75
2023/07/13 13:55:52;;;;;;;2.03;0.88;;;;;;;;;;4976652;28;20038;-75
2023/07/13 13:58:18;;;;;;;2.05;0.70;;;;;;;;;;4976926;28;20019;-75
2023/07/13 14:00:48;;;;;;;1.48;0.90;;;;;;;;;;4977096;28;20463;-75
2023/07/13 14:03:23;;;;;;;1.80;0.80;;;;;;;;;;4976853;28;20027;-74
2023/07/13 14:05:50;;;;;;;1.80;0.77;;;;;;;;;;4976957;28;20266;-75
2023/07/13 14:08:18;;;;;;;2.53;0.52;;;;;;;;;;4976923;28;20041;-75
2023/07/13 14:10:49;;;;;;;4.80;0.70;;;;;;;;;;4976340;28;20387;-75
2023/07/13 14:13:21;;;;;;;2.40;0.70;;;;;;;;;;4975161;28;20045;-74
2023/07/13 14:15:48;;;;;;;2.03;0.88;;;;;;;;;;4976081;28;20044;-74
2023/07/13 14:18:17;;;;;;;1.75;0.60;;;;;;;;;;4976535;28;20037;-75
2023/07/13 14:20:45;;;;;;;4.18;1.05;;;;;;;;;;4976774;28;20031;-75
2023/07/13 14:23:13;;;;;;;2.03;0.70;;;;;;;;;;4976701;28;20018;-75
2023/07/13 14:25:39;;;;;;;0.70;0.60;;;;;;;;;;4976433;28;20025;-74
2023/07/13 14:28:18;;;;;;;1.15;0.80;;;;;;;;;;4976444;28;20037;-75
2023/07/13 14:30:44;;;;;;;0.75;0.60;;;;;;;;;;4976417;28;20506;-75
2023/07/13 14:33:11;;;;;;;3.80;1.25;;;;;;;;;;4974664;28;20042;-75
2023/07/13 14:35:38;;;;;;;3.03;1.00;;;;;;;;;;4976576;28;20027;-75
2023/07/13 14:38:04;;;;;;;2.53;1.02;;;;;;;;;;4975832;28;20019;-74
2023/07/13 14:40:32;;;;;;;1.90;0.90;;;;;;;;;;4975686;28;20029;-75
2023/07/13 14:42:59;;;;;;;4.38;1.25;;;;;;;;;;4976207;28;20394;-75
2023/07/13 14:45:26;;;;;;;1.77;0.82;;;;;;;;;;4976347;28;20084;-75
2023/07/13 14:47:52;;;;;;;2.40;0.88;;;;;;;;;;4974162;28;20034;-76
2023/07/13 14:50:21;;;;;;;2.60;0.95;;;;;;;;;;4974395;28;20069;-75